Time;durP1;ratioP1;P1;durP2;ratioP2;P2;SDS_P1;SDS_P2;PMS_P1;PMS_P2;Temp;Humidity;BMP_temperature;BMP_pressure;BME280_temperature;BME280_humidity;BME280_pressure;Samples;Min_cycle;Max_cycle;Signal;HPM_P1;HPM_P2
2023/06/21 00:00:42;;;;;;;10.23;9.33;;;20.70;99.90;;;;;;5033426;28;20444;-59
2023/06/21 00:03:09;;;;;;;9.67;8.33;;;20.70;99.90;;;;;;5032893;28;20924;-58
2023/06/21 00:05:38;;;;;;;9.13;8.23;;;20.80;99.90;;;;;;5032710;28;20480;-59
2023/06/21 00:08:05;;;;;;;9.77;8.63;;;20.80;99.90;;;;;;5033202;28;20449;-59
2023/06/21 00:10:33;;;;;;;9.43;7.47;;;20.80;99.90;;;;;;5033116;28;20448;-57
2023/06/21 00:13:00;;;;;;;8.63;7.83;;;20.80;99.90;;;;;;5033276;28;20448;-57
2023/06/21 00:15:27;;;;;;;10.00;9.10;;;20.80;99.90;;;;;;5033179;28;20804;-57
2023/06/21 00:17:54;;;;;;;8.87;7.70;;;20.80;99.90;;;;;;5033316;28;20485;-58
2023/06/21 00:20:21;;;;;;;9.03;7.80;;;20.80;99.90;;;;;;5033271;28;20464;-57
2023/06/21 00:22:55;;;;;;;9.63;8.63;;;20.80;99.90;;;;;;5032721;28;20882;-58
2023/06/21 00:25:23;;;;;;;9.40;8.47;;;20.80;99.90;;;;;;5032741;28;20469;-58
2023/06/21 00:27:49;;;;;;;8.63;7.93;;;20.80;99.90;;;;;;5035607;28;20563;-59
2023/06/21 00:30:16;;;;;;;14.13;8.83;;;20.80;99.90;;;;;;5037004;28;20453;-57
2023/06/21 00:32:43;;;;;;;9.53;8.63;;;20.90;99.90;;;;;;5036997;28;20448;-59
2023/06/21 00:35:10;;;;;;;9.73;8.70;;;20.90;99.90;;;;;;5036534;28;20474;-58
2023/06/21 00:37:37;;;;;;;9.53;8.73;;;20.90;99.90;;;;;;5036517;28;20477;-57
2023/06/21 00:40:11;;;;;;;9.20;8.40;;;20.90;99.90;;;;;;5036790;28;20519;-58
2023/06/21 00:42:38;;;;;;;9.83;9.03;;;21.00;99.90;;;;;;5036418;28;20430;-58
2023/06/21 00:45:07;;;;;;;10.90;9.90;;;20.90;99.90;;;;;;5036704;28;20491;-58
2023/06/21 00:47:33;;;;;;;8.73;7.80;;;21.00;99.90;;;;;;5036669;28;20444;-58
2023/06/21 00:50:01;;;;;;;9.73;8.87;;;21.00;99.90;;;;;;5036665;28;20469;-60
2023/06/21 00:52:28;;;;;;;9.07;8.27;;;21.00;99.90;;;;;;5036624;28;20505;-58
2023/06/21 00:54:56;;;;;;;9.90;9.00;;;21.00;99.90;;;;;;5036504;28;20469;-58
2023/06/21 00:57:24;;;;;;;10.23;9.30;;;21.00;99.90;;;;;;5036301;28;20547;-58
2023/06/21 00:59:53;;;;;;;11.20;10.10;;;20.90;99.90;;;;;;5036481;28;20442;-58
2023/06/21 01:02:20;;;;;;;10.10;9.20;;;20.90;99.90;;;;;;5036406;28;20449;-59
2023/06/21 01:04:49;;;;;;;11.20;10.10;;;20.90;99.90;;;;;;5036324;28;20531;-59
2023/06/21 01:07:27;;;;;;;10.17;9.20;;;20.90;99.90;;;;;;5036426;28;20457;-60
2023/06/21 01:10:08;;;;;;;10.60;9.40;;;21.00;99.90;;;;;;5036284;28;20442;-60
2023/06/21 01:12:46;;;;;;;9.67;8.67;;;20.90;99.90;;;;;;5036398;28;20425;-59
2023/06/21 01:15:20;;;;;;;9.53;8.50;;;21.00;99.90;;;;;;5035925;28;20857;-59
2023/06/21 01:17:52;;;;;;;10.20;8.73;;;20.90;99.90;;;;;;5036263;28;20468;-59
2023/06/21 01:20:24;;;;;;;9.57;8.70;;;20.90;99.90;;;;;;5036143;28;20437;-60
2023/06/21 01:23:09;;;;;;;8.40;7.60;;;20.90;99.90;;;;;;5036228;28;20444;-59
2023/06/21 01:25:53;;;;;;;10.07;8.50;;;20.90;99.90;;;;;;5036232;28;20527;-59
2023/06/21 01:28:47;;;;;;;12.47;9.00;;;20.90;99.90;;;;;;5036077;28;20426;-59
2023/06/21 01:31:16;;;;;;;9.07;8.17;;;20.90;99.90;;;;;;5036079;28;20511;-59
2023/06/21 01:33:45;;;;;;;9.30;8.50;;;20.90;99.90;;;;;;5035955;28;20441;-61
2023/06/21 01:36:11;;;;;;;8.40;7.70;;;20.90;99.90;;;;;;5035439;28;20940;-59
2023/06/21 01:38:38;;;;;;;8.30;7.50;;;20.90;99.90;;;;;;5035070;28;20445;-60
2023/06/21 01:41:06;;;;;;;8.30;7.60;;;20.90;99.90;;;;;;5035741;28;20441;-59
2023/06/21 01:43:33;;;;;;;8.83;8.03;;;20.80;99.90;;;;;;5035729;28;20455;-60
2023/06/21 01:46:02;;;;;;;7.83;7.13;;;20.80;99.90;;;;;;5035638;28;20531;-59
2023/06/21 01:48:33;;;;;;;9.00;8.20;;;20.80;99.90;;;;;;5035719;28;20447;-59
2023/06/21 01:51:02;;;;;;;8.40;7.60;;;20.70;99.90;;;;;;5035659;28;20426;-61
2023/06/21 01:53:30;;;;;;;7.30;6.70;;;20.70;99.90;;;;;;5035294;28;20524;-60
2023/06/21 01:56:01;;;;;;;8.47;7.70;;;20.70;99.90;;;;;;5035252;28;20469;-59
2023/06/21 01:58:28;;;;;;;8.40;7.60;;;20.60;99.90;;;;;;5035565;28;20465;-60
2023/06/21 02:00:57;;;;;;;9.30;7.70;;;20.60;99.90;;;;;;5035264;28;20449;-60
2023/06/21 02:03:27;;;;;;;8.63;7.90;;;20.60;99.90;;;;;;5035225;28;20547;-58
2023/06/21 02:05:57;;;;;;;9.23;8.40;;;20.50;99.90;;;;;;5035351;28;20500;-58
2023/06/21 02:08:25;;;;;;;8.30;7.50;;;20.40;99.90;;;;;;5035140;28;20432;-58
2023/06/21 02:10:52;;;;;;;7.93;7.20;;;20.40;99.90;;;;;;5034811;28;20452;-58
2023/06/21 02:13:19;;;;;;;8.80;7.90;;;20.30;99.90;;;;;;5035303;28;20448;-59
2023/06/21 02:15:47;;;;;;;9.83;7.73;;;20.20;99.90;;;;;;5035111;28;20463;-58
2023/06/21 02:18:14;;;;;;;9.80;8.80;;;20.20;99.90;;;;;;5034997;28;20487;-59
2023/06/21 02:20:41;;;;;;;9.03;8.23;;;20.20;99.90;;;;;;5035010;28;20449;-60
2023/06/21 02:23:09;;;;;;;8.67;7.93;;;20.20;99.90;;;;;;5034504;28;20449;-59
2023/06/21 02:25:36;;;;;;;9.63;8.73;;;20.10;99.90;;;;;;5034356;28;20978;-59
2023/06/21 02:28:03;;;;;;;8.83;8.03;;;20.10;99.90;;;;;;5034907;28;20821;-59
2023/06/21 02:30:30;;;;;;;11.00;8.00;;;20.10;99.90;;;;;;5034944;28;20441;-59
2023/06/21 02:32:57;;;;;;;9.23;8.43;;;20.10;99.90;;;;;;5034994;28;20445;-59
2023/06/21 02:35:24;;;;;;;9.23;7.43;;;20.10;99.90;;;;;;5035093;28;20468;-59
2023/06/21 02:37:51;;;;;;;10.17;9.03;;;20.10;99.90;;;;;;5034839;28;20508;-59
2023/06/21 02:40:19;;;;;;;8.90;8.00;;;20.20;99.90;;;;;;5034643;28;20961;-60
2023/06/21 02:42:46;;;;;;;9.00;8.00;;;20.20;99.90;;;;;;5034642;28;20441;-59
2023/06/21 02:45:13;;;;;;;9.40;7.60;;;20.20;99.90;;;;;;5034400;28;20468;-59
2023/06/21 02:47:40;;;;;;;8.70;7.80;;;20.30;99.90;;;;;;5034106;28;20969;-59
2023/06/21 02:50:08;;;;;;;9.30;7.90;;;20.30;99.90;;;;;;5033307;28;20441;-60
2023/06/21 02:52:34;;;;;;;9.13;8.10;;;20.30;99.90;;;;;;5033888;28;21017;-59
2023/06/21 02:55:03;;;;;;;8.37;7.57;;;20.40;99.90;;;;;;5034038;28;20465;-59
2023/06/21 02:57:31;;;;;;;9.70;7.97;;;20.40;99.90;;;;;;5034385;28;20476;-57
2023/06/21 02:59:59;;;;;;;9.47;8.57;;;20.40;99.90;;;;;;5034069;28;20445;-59
2023/06/21 03:02:32;;;;;;;10.20;9.20;;;20.40;99.90;;;;;;5034296;28;20468;-60
2023/06/21 03:05:00;;;;;;;9.40;8.50;;;20.40;99.90;;;;;;5034025;28;20481;-59
2023/06/21 03:07:27;;;;;;;11.23;9.70;;;20.40;99.90;;;;;;5034217;28;20445;-60
2023/06/21 03:09:55;;;;;;;10.73;9.80;;;20.40;99.90;;;;;;5033836;28;20445;-60
2023/06/21 03:12:21;;;;;;;13.07;10.03;;;20.40;99.90;;;;;;5034065;28;20452;-59
2023/06/21 03:14:50;;;;;;;11.70;10.50;;;20.30;99.90;;;;;;5033542;28;21002;-59
2023/06/21 03:17:17;;;;;;;11.30;10.30;;;20.30;99.90;;;;;;5033811;28;20487;-58
2023/06/21 03:19:43;;;;;;;10.57;9.57;;;20.30;99.90;;;;;;5033879;28;20448;-59
2023/06/21 03:22:10;;;;;;;10.87;9.73;;;20.30;99.90;;;;;;5033661;28;20935;-58
2023/06/21 03:24:37;;;;;;;11.23;9.90;;;20.30;99.90;;;;;;5033870;28;20878;-59
2023/06/21 03:27:04;;;;;;;11.83;10.50;;;20.30;99.90;;;;;;5033917;28;20437;-58
2023/06/21 03:29:32;;;;;;;13.40;11.57;;;20.20;99.90;;;;;;5033898;28;20473;-58
2023/06/21 03:32:00;;;;;;;11.97;10.90;;;20.30;99.90;;;;;;5033783;28;20811;-58
2023/06/21 03:34:26;;;;;;;11.93;10.87;;;20.30;99.90;;;;;;5033494;28;20483;-59
2023/06/21 03:36:54;;;;;;;14.20;11.53;;;20.30;99.90;;;;;;5033515;28;20449;-59
2023/06/21 03:39:21;;;;;;;11.40;10.40;;;20.30;99.90;;;;;;5033401;28;20484;-59
2023/06/21 03:41:48;;;;;;;12.57;11.37;;;20.30;99.90;;;;;;5033534;28;20523;-59
2023/06/21 03:44:15;;;;;;;13.23;11.50;;;20.30;99.90;;;;;;5033183;28;20471;-60
2023/06/21 03:46:42;;;;;;;12.63;11.43;;;20.30;99.90;;;;;;5034519;28;20445;-59
2023/06/21 03:49:10;;;;;;;12.17;10.43;;;20.30;99.90;;;;;;5033608;28;20445;-59
2023/06/21 03:51:37;;;;;;;14.53;12.30;;;20.30;99.90;;;;;;5033059;28;20807;-60
2023/06/21 03:54:04;;;;;;;13.23;11.40;;;20.30;99.90;;;;;;5033360;28;20480;-59
2023/06/21 03:56:32;;;;;;;16.13;11.57;;;20.40;99.90;;;;;;5033938;28;20436;-59
2023/06/21 03:58:59;;;;;;;11.10;9.33;;;20.50;99.90;;;;;;5033417;28;20851;-59
2023/06/21 04:01:26;;;;;;;12.03;10.83;;;20.60;99.90;;;;;;5033307;28;20468;-59
2023/06/21 04:03:52;;;;;;;15.83;10.90;;;20.70;99.90;;;;;;5033645;28;20452;-59
2023/06/21 04:06:21;;;;;;;11.80;10.60;;;20.70;99.90;;;;;;5033791;28;20472;-58
2023/06/21 04:11:51;;;;;;;13.97;10.17;;;21.20;99.90;;;;;;5092309;27;20550;-58
2023/06/21 04:14:18;;;;;;;9.47;8.67;;;21.50;99.90;;;;;;5090885;28;20472;-58
2023/06/21 04:16:45;;;;;;;9.57;8.50;;;21.90;99.90;;;;;;5090876;28;20449;-58
2023/06/21 04:19:12;;;;;;;12.73;9.13;;;22.30;99.90;;;;;;5090756;28;20453;-57
2023/06/21 04:21:40;;;;;;;10.67;8.53;;;22.70;99.90;;;;;;5090652;28;20781;-56
2023/06/21 04:24:06;;;;;;;11.17;9.20;;;22.90;99.90;;;;;;5090681;28;20474;-56
2023/06/21 04:26:33;;;;;;;10.63;8.50;;;23.10;99.90;;;;;;5090319;28;20940;-56
2023/06/21 04:29:01;;;;;;;10.03;9.07;;;23.40;99.90;;;;;;5090401;28;20448;-57
2023/06/21 04:31:28;;;;;;;11.30;8.60;;;23.50;99.90;;;;;;5090166;28;20853;-57
2023/06/21 04:33:55;;;;;;;8.87;7.73;;;23.50;99.90;;;;;;5090154;28;20520;-57
2023/06/21 04:36:23;;;;;;;11.00;8.10;;;23.40;99.90;;;;;;5090164;28;20443;-59
2023/06/21 04:38:50;;;;;;;8.93;7.90;;;23.40;99.90;;;;;;5090634;28;20477;-56
2023/06/21 04:41:18;;;;;;;7.97;7.03;;;23.40;99.90;;;;;;5089950;28;20952;-57
2023/06/21 04:43:45;;;;;;;9.47;8.20;;;23.60;99.90;;;;;;5089862;28;20449;-58
2023/06/21 04:46:13;;;;;;;7.73;6.93;;;23.60;99.90;;;;;;5089718;28;20950;-57
2023/06/21 04:48:40;;;;;;;7.10;6.50;;;23.70;99.90;;;;;;5090314;28;20446;-58
2023/06/21 04:51:06;;;;;;;7.60;6.60;;;23.90;99.90;;;;;;5089773;28;20486;-57
2023/06/21 04:53:33;;;;;;;6.67;6.10;;;24.10;99.90;;;;;;5089697;28;20457;-59
2023/06/21 04:56:00;;;;;;;7.57;6.40;;;24.20;99.90;;;;;;5089790;28;20495;-59
2023/06/21 04:58:27;;;;;;;6.93;6.23;;;24.30;99.90;;;;;;5089470;28;20589;-59
2023/06/21 05:00:54;;;;;;;6.83;6.13;;;24.40;99.90;;;;;;5089169;28;20457;-61
2023/06/21 05:03:22;;;;;;;7.03;5.40;;;24.30;99.90;;;;;;5090116;28;20448;-61
2023/06/21 05:05:49;;;;;;;6.27;5.77;;;24.40;99.90;;;;;;5089347;28;20461;-60
2023/06/21 05:08:16;;;;;;;6.93;5.83;;;24.40;99.90;;;;;;5089244;28;20817;-60
2023/06/21 05:10:42;;;;;;;7.53;5.37;;;24.40;99.90;;;;;;5088816;28;20481;-60
2023/06/21 05:13:09;;;;;;;6.47;5.40;;;24.40;99.90;;;;;;5089326;28;20449;-58
2023/06/21 05:15:36;;;;;;;6.43;5.20;;;24.40;99.90;;;;;;5089039;28;20984;-57
2023/06/21 05:18:05;;;;;;;5.80;5.20;;;24.60;99.90;;;;;;5089981;28;20451;-57
2023/06/21 05:20:33;;;;;;;6.70;5.93;;;24.70;99.90;;;;;;5089462;28;20450;-57
2023/06/21 05:23:00;;;;;;;5.67;5.17;;;24.80;99.90;;;;;;5076668;28;20525;-57
2023/06/21 05:25:27;;;;;;;7.50;4.80;;;24.90;98.90;;;;;;5075897;28;20475;-57
2023/06/21 05:27:53;;;;;;;6.17;5.10;;;24.90;98.80;;;;;;5076243;28;20827;-56
2023/06/21 05:30:20;;;;;;;6.93;5.50;;;24.90;98.70;;;;;;5075789;28;20477;-57
2023/06/21 05:32:47;;;;;;;6.13;5.63;;;24.90;97.90;;;;;;5075946;28;20447;-58
2023/06/21 05:35:14;;;;;;;5.83;5.23;;;24.90;97.90;;;;;;5075852;28;20473;-58
2023/06/21 05:37:42;;;;;;;5.87;5.20;;;24.90;97.80;;;;;;5075770;28;20450;-57
2023/06/21 05:40:10;;;;;;;6.50;4.80;;;24.90;97.50;;;;;;5074898;28;20462;-57
2023/06/21 05:42:37;;;;;;;5.20;4.73;;;24.90;97.50;;;;;;5075003;28;20485;-57
2023/06/21 05:45:06;;;;;;;5.27;4.83;;;24.90;97.00;;;;;;5075263;28;20452;-57
2023/06/21 05:47:32;;;;;;;7.47;5.00;;;24.90;97.10;;;;;;5075812;28;20440;-57
2023/06/21 05:49:59;;;;;;;5.40;4.90;;;24.90;97.20;;;;;;5075267;28;20427;-57
2023/06/21 05:52:26;;;;;;;6.10;5.33;;;24.90;96.80;;;;;;5075174;28;20514;-59
2023/06/21 05:54:54;;;;;;;5.13;4.70;;;25.00;96.50;;;;;;5074850;28;20510;-57
2023/06/21 05:57:21;;;;;;;6.10;5.57;;;24.90;96.00;;;;;;5074985;28;20466;-57
2023/06/21 05:59:48;;;;;;;5.70;4.83;;;24.80;96.10;;;;;;5075054;28;20457;-57
2023/06/21 06:02:15;;;;;;;7.70;5.40;;;24.70;96.10;;;;;;5075271;28;20438;-60
2023/06/21 06:04:41;;;;;;;5.83;4.77;;;24.50;96.60;;;;;;5075196;28;20474;-61
2023/06/21 06:07:08;;;;;;;5.50;4.33;;;24.30;97.00;;;;;;5074804;28;20938;-61
2023/06/21 06:09:35;;;;;;;5.80;5.20;;;24.30;97.30;;;;;;5074595;28;20798;-60
2023/06/21 06:12:04;;;;;;;5.50;4.87;;;24.20;97.30;;;;;;5075338;28;20472;-60
2023/06/21 06:14:31;;;;;;;6.10;4.87;;;24.20;98.00;;;;;;5075880;28;20475;-62
2023/06/21 06:16:58;;;;;;;5.67;4.60;;;24.20;98.20;;;;;;5076384;28;20449;-60
2023/06/21 06:19:24;;;;;;;5.97;5.10;;;24.20;98.10;;;;;;5075362;28;20443;-61
2023/06/21 06:21:51;;;;;;;5.20;4.70;;;24.20;97.90;;;;;;5074850;28;20453;-60
2023/06/21 06:24:18;;;;;;;4.67;4.27;;;24.20;97.70;;;;;;5075379;28;20552;-60
2023/06/21 06:26:45;;;;;;;9.23;4.63;;;24.10;97.60;;;;;;5074516;28;20450;-59
2023/06/21 06:29:13;;;;;;;6.50;4.57;;;24.10;97.50;;;;;;5074197;28;20553;-60
2023/06/21 06:31:39;;;;;;;7.13;4.87;;;24.10;97.50;;;;;;5074037;28;20492;-60
2023/06/21 06:34:06;;;;;;;5.83;4.10;;;24.20;97.10;;;;;;5073121;28;20463;-60
2023/06/21 06:36:33;;;;;;;5.23;4.73;;;24.20;96.90;;;;;;5074120;28;20444;-60
2023/06/21 06:39:00;;;;;;;4.70;4.37;;;24.30;96.80;;;;;;5074145;28;20485;-61
2023/06/21 06:41:27;;;;;;;4.70;4.30;;;24.40;96.50;;;;;;5074441;28;20444;-59
2023/06/21 06:43:54;;;;;;;5.10;4.60;;;24.40;95.80;;;;;;5073750;28;20950;-58
2023/06/21 06:46:22;;;;;;;6.10;5.07;;;24.30;95.50;;;;;;5074018;28;20451;-59
2023/06/21 06:48:48;;;;;;;5.37;4.87;;;24.30;95.30;;;;;;5073948;28;20474;-58
2023/06/21 06:51:15;;;;;;;4.70;4.27;;;24.20;95.30;;;;;;5073908;28;20566;-59
2023/06/21 06:53:42;;;;;;;5.50;4.63;;;24.20;95.00;;;;;;5074485;28;20465;-60
2023/06/21 06:56:09;;;;;;;5.00;4.60;;;24.20;94.50;;;;;;5073365;28;20959;-61
2023/06/21 06:58:36;;;;;;;4.80;4.40;;;24.30;94.40;;;;;;5073714;28;20940;-60
2023/06/21 07:01:05;;;;;;;6.20;5.20;;;24.40;93.80;;;;;;5073574;28;20541;-58
2023/06/21 07:03:33;;;;;;;5.63;4.47;;;24.40;93.00;;;;;;5074101;28;20884;-60
2023/06/21 07:06:00;;;;;;;8.00;4.77;;;24.40;92.70;;;;;;5073629;28;20461;-62
2023/06/21 07:08:27;;;;;;;5.60;5.10;;;24.30;92.80;;;;;;5073169;28;20449;-61
2023/06/21 07:10:54;;;;;;;4.90;4.50;;;24.30;92.70;;;;;;5073408;28;21045;-61
2023/06/21 07:13:21;;;;;;;6.37;4.67;;;24.20;92.90;;;;;;5073395;28;20939;-62
2023/06/21 07:15:48;;;;;;;5.17;4.70;;;24.10;93.10;;;;;;5073776;28;20477;-62
2023/06/21 07:18:15;;;;;;;7.17;5.03;;;24.10;93.50;;;;;;5074348;28;21008;-61
2023/06/21 07:20:43;;;;;;;5.70;4.87;;;24.10;93.50;;;;;;5074182;28;20444;-60
2023/06/21 07:23:10;;;;;;;7.10;4.70;;;24.20;93.70;;;;;;5073208;28;20448;-60
2023/06/21 07:25:37;;;;;;;6.10;5.00;;;24.20;93.60;;;;;;5073689;28;20472;-60
2023/06/21 07:28:04;;;;;;;4.63;4.23;;;24.20;93.60;;;;;;5074184;28;20480;-61
2023/06/21 07:30:31;;;;;;;5.90;5.30;;;24.30;93.20;;;;;;5074548;28;20539;-61
2023/06/21 07:32:58;;;;;;;5.10;4.60;;;24.40;92.40;;;;;;5073068;28;20446;-60
2023/06/21 07:35:25;;;;;;;4.70;4.30;;;24.40;92.20;;;;;;5073752;28;20476;-61
2023/06/21 07:37:53;;;;;;;4.30;3.90;;;24.50;92.30;;;;;;5072929;28;20821;-60
2023/06/21 07:40:20;;;;;;;5.50;4.07;;;24.80;92.00;;;;;;5073308;28;20814;-60
2023/06/21 07:42:48;;;;;;;4.60;4.17;;;25.00;91.00;;;;;;5072848;28;20442;-60
2023/06/21 07:45:15;;;;;;;5.53;4.90;;;25.10;90.00;;;;;;5072534;28;20470;-60
2023/06/21 07:47:42;;;;;;;6.27;5.17;;;25.20;88.70;;;;;;5073180;28;20453;-60
2023/06/21 07:50:10;;;;;;;5.50;5.00;;;25.20;87.00;;;;;;5073265;28;20976;-60
2023/06/21 07:52:36;;;;;;;5.47;4.97;;;25.30;86.80;;;;;;5072488;28;20569;-60
2023/06/21 07:55:10;;;;;;;5.07;4.60;;;25.50;85.40;;;;;;5073438;28;20857;-62
2023/06/21 07:57:37;;;;;;;5.40;4.90;;;25.60;83.40;;;;;;5073343;28;20430;-60
2023/06/21 08:00:11;;;;;;;4.60;4.20;;;25.70;82.00;;;;;;5073788;28;20439;-61
2023/06/21 08:02:38;;;;;;;5.30;4.80;;;25.70;81.40;;;;;;5073643;28;20481;-61
2023/06/21 08:05:05;;;;;;;5.87;5.27;;;25.70;80.90;;;;;;5090827;22;20575;-60
2023/06/21 08:07:32;;;;;;;5.80;5.30;;;25.90;80.20;;;;;;5054688;28;20506;-61
2023/06/21 08:09:59;;;;;;;5.90;5.40;;;26.20;78.60;;;;;;5054397;28;20459;-61
2023/06/21 08:12:27;;;;;;;5.87;5.07;;;26.40;76.30;;;;;;5055237;28;20488;-61
2023/06/21 08:14:53;;;;;;;6.80;4.97;;;26.40;74.90;;;;;;5054812;28;21012;-61
2023/06/21 08:17:20;;;;;;;5.50;5.10;;;26.40;73.80;;;;;;5054114;28;20445;-61
2023/06/21 08:19:47;;;;;;;9.03;5.23;;;26.30;73.80;;;;;;5054032;28;20477;-61
2023/06/21 08:22:14;;;;;;;6.93;6.30;;;26.10;74.10;;;;;;5054031;28;20444;-61
2023/06/21 08:24:41;;;;;;;6.43;5.70;;;26.10;74.40;;;;;;5053991;28;20466;-61
2023/06/21 08:27:08;;;;;;;6.40;5.87;;;26.10;75.40;;;;;;5054068;28;20448;-60
2023/06/21 08:29:36;;;;;;;6.50;5.80;;;26.10;76.10;;;;;;5054757;28;20442;-61
2023/06/21 08:32:04;;;;;;;7.93;6.10;;;26.00;76.70;;;;;;5053818;28;20482;-62
2023/06/21 08:34:31;;;;;;;8.03;6.60;;;25.90;77.60;;;;;;5054095;28;20455;-61
2023/06/21 08:36:58;;;;;;;6.13;5.53;;;25.90;77.50;;;;;;5053923;28;20449;-60
2023/06/21 08:39:25;;;;;;;6.60;6.00;;;25.80;77.90;;;;;;5054265;28;20936;-63
2023/06/21 08:41:53;;;;;;;8.00;6.20;;;25.70;78.30;;;;;;5055618;28;20936;-62
2023/06/21 08:44:19;;;;;;;7.93;6.40;;;25.70;78.60;;;;;;5054633;28;20910;-61
2023/06/21 08:46:49;;;;;;;8.53;6.37;;;25.70;78.70;;;;;;5054164;28;20451;-60
2023/06/21 08:49:19;;;;;;;7.37;6.67;;;25.70;78.90;;;;;;5054103;28;20459;-60
2023/06/21 08:51:46;;;;;;;6.57;5.97;;;25.70;79.00;;;;;;5054433;28;20478;-60
2023/06/21 08:54:14;;;;;;;7.17;6.43;;;25.80;78.40;;;;;;5053572;28;20490;-62
2023/06/21 08:56:47;;;;;;;7.80;7.07;;;25.90;77.40;;;;;;5054172;28;20447;-61
2023/06/21 08:59:21;;;;;;;7.60;6.90;;;26.00;77.20;;;;;;5057616;28;20803;-60
2023/06/21 09:01:58;;;;;;;8.20;7.30;;;26.30;76.60;;;;;;5057754;28;20429;-61
2023/06/21 09:04:28;;;;;;;7.27;6.10;;;26.50;75.00;;;;;;5057679;28;20897;-60
2023/06/21 09:06:56;;;;;;;6.27;5.63;;;26.70;73.90;;;;;;5058149;28;20430;-61
2023/06/21 09:09:24;;;;;;;8.23;7.53;;;26.80;72.90;;;;;;5058283;28;20474;-61
2023/06/21 09:11:53;;;;;;;7.73;7.03;;;26.80;72.10;;;;;;5058437;28;20482;-60
2023/06/21 09:14:21;;;;;;;10.90;8.43;;;26.70;71.90;;;;;;5058703;28;20455;-60
2023/06/21 09:16:50;;;;;;;10.20;8.30;;;26.60;72.70;;;;;;5059179;28;20543;-61
2023/06/21 09:19:17;;;;;;;10.80;9.80;;;26.60;73.20;;;;;;5060484;28;20453;-60
2023/06/21 09:21:45;;;;;;;9.33;7.40;;;26.60;73.20;;;;;;5067140;28;20438;-62
2023/06/21 09:24:12;;;;;;;7.60;7.10;;;26.60;73.10;;;;;;5064965;28;20453;-61
2023/06/21 09:26:39;;;;;;;8.70;7.90;;;26.50;72.00;;;;;;5059773;28;20447;-60
2023/06/21 09:29:05;;;;;;;8.37;7.63;;;26.30;71.50;;;;;;5058889;28;20454;-62
2023/06/21 09:31:33;;;;;;;9.87;9.07;;;26.20;70.20;;;;;;5059672;28;20473;-61
2023/06/21 09:34:01;;;;;;;8.57;7.87;;;26.20;69.20;;;;;;5059053;28;20477;-62
2023/06/21 09:36:28;;;;;;;8.27;7.57;;;26.40;68.90;;;;;;5058155;28;20469;-60
2023/06/21 09:39:07;;;;;;;8.40;7.70;;;26.50;68.20;;;;;;5058288;28;20434;-60
2023/06/21 09:41:34;;;;;;;8.40;7.73;;;26.50;66.50;;;;;;5058726;28;20432;-61
2023/06/21 09:44:00;;;;;;;8.83;8.03;;;26.60;65.00;;;;;;5058281;28;20449;-60
2023/06/21 09:46:27;;;;;;;10.10;9.13;;;26.70;63.40;;;;;;5059489;28;20457;-60
2023/06/21 09:48:54;;;;;;;9.97;9.10;;;26.80;62.40;;;;;;5058760;28;20444;-61
2023/06/21 09:51:25;;;;;;;9.27;8.47;;;26.80;62.00;;;;;;5056955;28;20450;-61
2023/06/21 09:53:52;;;;;;;9.80;8.90;;;26.80;62.00;;;;;;5056490;28;20859;-60
2023/06/21 09:56:20;;;;;;;9.37;8.57;;;26.80;61.80;;;;;;5056472;28;21004;-61
2023/06/21 09:58:49;;;;;;;12.50;11.37;;;26.90;61.20;;;;;;5056381;28;20447;-60
2023/06/21 10:01:17;;;;;;;10.23;9.23;;;27.00;60.50;;;;;;5057611;28;20449;-60
2023/06/21 10:03:45;;;;;;;10.40;9.50;;;27.10;60.30;;;;;;5056991;28;20448;-61
2023/06/21 10:06:16;;;;;;;11.07;10.07;;;27.10;59.70;;;;;;5056337;28;20485;-61
2023/06/21 10:08:45;;;;;;;20.00;11.00;;;27.10;59.30;;;;;;5056400;28;20489;-60
2023/06/21 10:11:16;;;;;;;11.60;10.40;;;27.00;59.10;;;;;;5056721;28;20449;-61
2023/06/21 10:13:43;;;;;;;10.33;9.40;;;27.10;59.20;;;;;;5056202;28;20460;-60
2023/06/21 10:16:11;;;;;;;12.20;11.10;;;27.10;58.70;;;;;;5056104;28;20975;-61
2023/06/21 10:18:38;;;;;;;10.70;9.80;;;27.10;58.30;;;;;;5056246;28;20824;-61
2023/06/21 10:21:06;;;;;;;11.43;10.53;;;27.00;58.30;;;;;;5056594;28;20447;-62
2023/06/21 10:23:36;;;;;;;11.40;10.47;;;27.00;58.60;;;;;;5056943;28;20451;-64
2023/06/21 10:26:06;;;;;;;11.63;10.53;;;27.10;58.50;;;;;;5056988;28;20978;-63
2023/06/21 10:28:37;;;;;;;11.17;10.07;;;27.10;58.40;;;;;;5056075;28;20959;-60
2023/06/21 10:31:04;;;;;;;11.57;10.47;;;27.10;58.50;;;;;;5055998;28;20447;-66
2023/06/21 10:33:35;;;;;;;12.37;11.20;;;27.20;58.70;;;;;;5056001;28;20546;-61
2023/06/21 10:36:03;;;;;;;11.30;10.30;;;27.20;58.60;;;;;;5056822;28;20464;-62
2023/06/21 10:38:35;;;;;;;11.27;10.07;;;27.30;58.60;;;;;;5055949;28;20823;-60
2023/06/21 10:41:04;;;;;;;11.13;9.90;;;27.30;58.50;;;;;;5057159;28;20433;-61
2023/06/21 10:43:32;;;;;;;11.93;10.73;;;27.50;58.30;;;;;;5056591;28;20840;-62
2023/06/21 10:46:01;;;;;;;11.60;10.50;;;27.60;57.90;;;;;;5056136;28;20479;-63
2023/06/21 10:48:28;;;;;;;10.50;9.60;;;27.70;58.00;;;;;;5055222;28;20436;-61
2023/06/21 10:50:56;;;;;;;9.73;8.87;;;27.80;57.50;;;;;;5055430;28;20449;-60
2023/06/21 10:53:25;;;;;;;11.43;10.53;;;27.90;57.20;;;;;;5056134;28;20481;-61
2023/06/21 10:55:52;;;;;;;12.20;11.20;;;28.00;56.80;;;;;;5056585;28;20979;-62
2023/06/21 10:58:20;;;;;;;11.50;9.57;;;28.30;56.60;;;;;;5056000;28;20455;-61
2023/06/21 11:00:49;;;;;;;11.60;10.40;;;28.40;56.20;;;;;;5055390;28;20475;-60
2023/06/21 11:03:16;;;;;;;10.57;9.67;;;28.50;55.80;;;;;;5055079;28;20944;-60
2023/06/21 11:05:45;;;;;;;8.97;8.20;;;28.40;55.60;;;;;;5055189;28;20492;-62
2023/06/21 11:08:15;;;;;;;8.70;8.00;;;28.50;55.70;;;;;;5055775;28;20968;-62
2023/06/21 11:10:43;;;;;;;8.27;7.57;;;28.50;55.20;;;;;;5056115;28;20913;-61
2023/06/21 11:13:10;;;;;;;8.37;7.60;;;28.70;54.80;;;;;;5055111;28;20518;-61
2023/06/21 11:15:40;;;;;;;8.70;8.00;;;28.70;53.80;;;;;;5055911;28;20473;-63
2023/06/21 11:18:08;;;;;;;7.37;6.67;;;28.60;53.60;;;;;;5055845;28;20542;-61
2023/06/21 11:20:46;;;;;;;7.93;7.23;;;28.60;53.20;;;;;;5055076;28;20445;-60
2023/06/21 11:23:16;;;;;;;7.70;7.00;;;28.70;52.60;;;;;;5056236;28;20468;-61
2023/06/21 11:25:50;;;;;;;8.47;7.20;;;28.80;52.60;;;;;;5056229;28;20508;-61
2023/06/21 11:28:29;;;;;;;8.00;7.30;;;28.90;52.40;;;;;;5058319;28;20436;-60
2023/06/21 11:31:08;;;;;;;6.80;6.20;;;29.10;52.20;;;;;;5059139;28;20445;-62
2023/06/21 11:33:50;;;;;;;7.10;6.40;;;29.10;51.50;;;;;;5060039;28;20540;-62
2023/06/21 11:36:21;;;;;;;7.83;7.13;;;29.10;51.40;;;;;;5057004;28;20471;-61
2023/06/21 11:38:52;;;;;;;6.83;6.27;;;29.20;51.30;;;;;;5057501;28;20433;-63
2023/06/21 11:41:51;;;;;;;7.40;6.80;;;29.30;51.00;;;;;;5055911;28;20545;-62
2023/06/21 11:44:22;;;;;;;7.27;6.67;;;29.30;50.80;;;;;;5036935;28;20463;-63
2023/06/21 11:46:57;;;;;;;7.30;6.70;;;29.40;50.80;;;;;;5055402;28;20981;-62
2023/06/21 11:49:32;;;;;;;8.27;7.47;;;29.60;50.60;;;;;;5055692;28;20425;-62
2023/06/21 11:52:03;;;;;;;7.30;6.70;;;29.80;50.20;;;;;;5056320;28;20483;-62
2023/06/21 11:54:31;;;;;;;7.80;7.20;;;30.00;49.90;;;;;;5058388;28;20439;-62
2023/06/21 11:56:58;;;;;;;6.87;6.17;;;29.90;50.50;;;;;;5059866;28;20446;-63
2023/06/21 11:59:26;;;;;;;6.03;5.53;;;30.00;49.90;;;;;;5059558;28;20437;-63
2023/06/21 12:01:54;;;;;;;9.87;8.13;;;30.10;49.60;;;;;;5057071;28;20438;-62
2023/06/21 12:04:27;;;;;;;7.30;6.60;;;30.10;49.30;;;;;;5055375;28;20454;-62
2023/06/21 12:06:55;;;;;;;7.57;6.83;;;30.50;49.00;;;;;;5056242;28;20427;-61
2023/06/21 12:09:22;;;;;;;6.23;5.73;;;31.00;48.10;;;;;;5057457;28;20446;-62
2023/06/21 12:11:49;;;;;;;6.43;5.70;;;31.20;47.30;;;;;;5057474;28;20454;-61
2023/06/21 12:14:16;;;;;;;7.00;6.40;;;31.30;46.80;;;;;;5058946;28;20481;-62
2023/06/21 12:16:43;;;;;;;6.20;5.60;;;31.40;46.50;;;;;;5058966;28;20439;-62
2023/06/21 12:19:11;;;;;;;6.20;5.70;;;31.50;46.30;;;;;;5057971;28;20445;-63
2023/06/21 12:21:39;;;;;;;6.97;6.27;;;31.40;46.10;;;;;;5057387;28;20543;-61
2023/06/21 12:24:06;;;;;;;6.70;5.50;;;31.40;46.10;;;;;;5056124;28;20447;-62
2023/06/21 12:26:33;;;;;;;5.90;5.50;;;31.50;46.00;;;;;;5055510;28;20477;-62
2023/06/21 12:29:00;;;;;;;6.10;5.60;;;31.40;45.90;;;;;;5055516;28;20824;-62
2023/06/21 12:31:30;;;;;;;6.10;5.60;;;31.50;46.10;;;;;;5056622;28;20442;-62
2023/06/21 12:33:57;;;;;;;5.30;4.90;;;31.80;45.70;;;;;;5059463;28;20508;-61
2023/06/21 12:36:29;;;;;;;6.20;5.60;;;32.30;45.20;;;;;;5060157;28;20511;-62
2023/06/21 12:38:57;;;;;;;6.40;5.80;;;32.90;44.30;;;;;;5060631;28;20443;-62
2023/06/21 12:41:25;;;;;;;5.90;5.30;;;32.90;43.70;;;;;;5060875;28;20447;-62
2023/06/21 12:43:54;;;;;;;5.80;5.30;;;32.70;44.00;;;;;;5060721;28;20815;-62
2023/06/21 12:46:22;;;;;;;5.10;4.50;;;32.20;44.60;;;;;;5059461;28;20856;-62
2023/06/21 12:48:50;;;;;;;5.10;4.70;;;31.80;45.20;;;;;;5059955;28;20456;-60
2023/06/21 12:51:21;;;;;;;5.87;5.07;;;31.40;45.30;;;;;;5058109;28;20456;-61